createdAt,value
2023-08-13T00:02:04.273Z,65.34
2023-08-13T00:04:33.127Z,66.26
2023-08-13T00:07:02.145Z,66.95
2023-08-13T00:09:30.581Z,65.21
2023-08-13T00:11:59.055Z,66.56
2023-08-13T00:14:27.455Z,66.54
2023-08-13T00:16:56.120Z,66.32
2023-08-13T00:19:24.425Z,65.54
2023-08-13T00:22:06.056Z,66.71
2023-08-13T00:24:36.627Z,68.15
2023-08-13T00:27:05.415Z,67.36
2023-08-13T00:29:34.788Z,68.70
2023-08-13T00:32:03.878Z,69.42
2023-08-13T00:34:32.589Z,69.03
2023-08-13T00:37:00.832Z,68.14
2023-08-13T00:39:29.449Z,68.26
2023-08-13T00:41:57.949Z,69.28
2023-08-13T00:44:27.851Z,69.27
2023-08-13T00:46:56.459Z,69.43
2023-08-13T00:49:25.671Z,68.31
2023-08-13T00:51:55.799Z,67.95
2023-08-13T00:54:24.236Z,67.71
2023-08-13T00:56:54.219Z,67.88
2023-08-13T00:59:23.700Z,69.10
2023-08-13T01:01:52.208Z,68.78
2023-08-13T01:04:20.774Z,69.30
2023-08-13T01:07:23.301Z,69.01
2023-08-13T01:10:06.301Z,68.35
2023-08-13T01:12:44.322Z,69.45
2023-08-13T01:15:16.101Z,69.02
2023-08-13T01:17:46.430Z,68.88
2023-08-13T01:20:16.089Z,68.72
2023-08-13T01:22:48.345Z,69.37
2023-08-13T01:25:18.703Z,70.62
2023-08-13T01:28:03.331Z,69.98
2023-08-13T01:30:42.752Z,69.51
2023-08-13T01:33:19.997Z,69.99
2023-08-13T01:35:48.897Z,69.01
2023-08-13T01:38:17.867Z,69.47
2023-08-13T01:40:46.451Z,68.92
2023-08-13T01:43:14.739Z,67.81
2023-08-13T01:45:43.121Z,67.77
2023-08-13T01:48:12.115Z,67.92
2023-08-13T01:50:41.883Z,68.71
2023-08-13T01:53:10.447Z,69.75
2023-08-13T01:55:38.985Z,69.75
2023-08-13T01:58:09.303Z,72.06
2023-08-13T02:00:38.309Z,72.07
2023-08-13T02:03:06.840Z,71.68
2023-08-13T02:05:35.619Z,72.12
2023-08-13T02:08:04.664Z,72.25
2023-08-13T02:10:33.149Z,72.16
2023-08-13T02:13:02.137Z,71.51
2023-08-13T02:15:30.550Z,71.69
2023-08-13T02:17:59.137Z,71.58
2023-08-13T02:20:27.692Z,73.34
2023-08-13T02:22:58.873Z,73.17
2023-08-13T02:25:27.307Z,72.39
2023-08-13T02:27:55.893Z,72.73
2023-08-13T02:30:24.499Z,72.28
2023-08-13T02:32:53.362Z,71.88
2023-08-13T02:35:21.950Z,73.40
2023-08-13T02:37:50.341Z,73.56
2023-08-13T02:40:18.911Z,73.83
2023-08-13T02:42:47.336Z,73.85
2023-08-13T02:45:15.880Z,72.66
2023-08-13T02:47:45.408Z,72.69
2023-08-13T02:50:14.017Z,73.92
2023-08-13T02:52:42.612Z,73.36
2023-08-13T02:55:11.235Z,73.30
2023-08-13T02:57:43.537Z,73.38
2023-08-13T03:00:16.400Z,71.87
2023-08-13T03:02:44.801Z,71.78
2023-08-13T03:05:13.690Z,71.47
2023-08-13T03:07:42.273Z,72.14
2023-08-13T03:10:10.816Z,72.10
2023-08-13T03:12:39.422Z,71.73
2023-08-13T03:15:09.024Z,71.21
2023-08-13T03:17:37.699Z,70.81
2023-08-13T03:20:07.400Z,71.94
2023-08-13T03:22:36.241Z,71.86
2023-08-13T03:25:05.792Z,70.98
2023-08-13T03:27:34.399Z,70.63
2023-08-13T03:30:03.073Z,70.95
2023-08-13T03:32:31.773Z,71.86
2023-08-13T03:35:00.552Z,72.13
2023-08-13T03:37:29.222Z,71.95
2023-08-13T03:39:57.751Z,70.87
2023-08-13T03:42:26.642Z,70.74
2023-08-13T03:44:56.553Z,70.55
2023-08-13T03:47:25.131Z,70.58
2023-08-13T03:49:53.690Z,70.79
2023-08-13T03:52:21.997Z,70.78
2023-08-13T03:54:50.750Z,71.01
2023-08-13T03:57:19.133Z,71.07
2023-08-13T03:59:48.052Z,71.18
2023-08-13T04:02:17.043Z,71.13
2023-08-13T04:04:46.825Z,71.25
2023-08-13T04:07:16.551Z,72.49
2023-08-13T04:09:44.913Z,72.01
2023-08-13T04:12:13.800Z,71.48
2023-08-13T04:14:42.824Z,70.73
2023-08-13T04:17:12.297Z,72.07
2023-08-13T04:19:40.981Z,71.84
2023-08-13T04:22:09.594Z,71.71
2023-08-13T04:24:38.048Z,71.21
2023-08-13T04:27:07.446Z,70.85
2023-08-13T04:29:36.140Z,71.07
2023-08-13T04:32:05.226Z,70.88
2023-08-13T04:34:34.430Z,70.90
2023-08-13T04:37:05.665Z,71.00
2023-08-13T04:39:34.402Z,71.24
2023-08-13T04:42:03.359Z,71.03
2023-08-13T04:44:32.036Z,70.22
2023-08-13T04:47:01.037Z,70.44
2023-08-13T04:49:29.741Z,69.74
2023-08-13T04:51:58.512Z,69.97
2023-08-13T04:54:31.917Z,70.33
2023-08-13T04:57:00.796Z,70.69
2023-08-13T04:59:29.854Z,70.55
2023-08-13T05:01:58.365Z,70.37
2023-08-13T05:04:26.811Z,70.27
2023-08-13T05:06:55.767Z,70.00
2023-08-13T05:09:24.737Z,69.97
2023-08-13T05:11:56.636Z,69.79
2023-08-13T05:14:25.920Z,69.79
2023-08-13T05:16:56.542Z,69.80
2023-08-13T05:19:27.019Z,69.52
2023-08-13T05:21:57.489Z,69.28
2023-08-13T05:24:26.515Z,68.99
2023-08-13T05:26:56.764Z,68.22
2023-08-13T05:29:27.351Z,67.69
2023-08-13T05:31:56.015Z,67.35
2023-08-13T05:34:25.045Z,67.31
2023-08-13T05:36:53.495Z,67.52
2023-08-13T05:39:23.931Z,66.97
2023-08-13T05:41:53.079Z,66.62
2023-08-13T05:44:22.112Z,66.24
2023-08-13T05:46:50.918Z,65.95
2023-08-13T05:49:19.797Z,65.77
2023-08-13T05:51:49.945Z,65.16
2023-08-13T05:54:18.825Z,64.97
2023-08-13T05:56:48.544Z,64.93
2023-08-13T05:59:17.198Z,64.53
2023-08-13T06:01:45.735Z,63.83
2023-08-13T06:04:15.694Z,63.04
2023-08-13T06:06:44.475Z,62.79
2023-08-13T06:09:13.081Z,62.33
2023-08-13T06:11:41.512Z,61.55
2023-08-13T06:14:10.347Z,61.34
2023-08-13T06:16:39.252Z,61.68
2023-08-13T06:19:07.904Z,61.19
2023-08-13T06:21:36.834Z,60.53
2023-08-13T06:24:06.858Z,60.25
2023-08-13T06:26:36.703Z,58.83
2023-08-13T06:29:09.183Z,58.49
2023-08-13T06:31:43.265Z,58.38
2023-08-13T06:34:12.926Z,58.44
2023-08-13T06:36:41.613Z,58.48
2023-08-13T06:39:11.336Z,57.62
2023-08-13T06:41:40.927Z,56.71
2023-08-13T06:44:22.745Z,57.07
2023-08-13T06:46:53.198Z,56.95
2023-08-13T06:49:21.842Z,56.38
2023-08-13T06:51:50.312Z,55.61
2023-08-13T06:54:20.058Z,56.61
2023-08-13T06:56:49.029Z,55.33
2023-08-13T06:59:18.143Z,54.51
2023-08-13T07:01:48.215Z,52.14
2023-08-13T07:04:18.467Z,52.05
2023-08-13T07:06:47.705Z,51.91
2023-08-13T07:09:19.808Z,52.19
2023-08-13T07:11:48.951Z,53.49
2023-08-13T07:14:20.166Z,54.19
2023-08-13T07:16:48.846Z,52.40
2023-08-13T07:19:17.475Z,51.13
2023-08-13T07:21:46.567Z,51.02
2023-08-13T07:24:15.226Z,49.88
2023-08-13T07:26:43.837Z,51.73
2023-08-13T07:29:13.965Z,50.53
2023-08-13T07:31:42.986Z,49.37
2023-08-13T07:34:11.851Z,49.23
2023-08-13T07:36:40.284Z,48.42
2023-08-13T07:39:10.814Z,47.58
2023-08-13T07:41:39.287Z,48.65
2023-08-13T07:44:10.739Z,48.40
2023-08-13T07:46:39.841Z,48.11
2023-08-13T07:49:09.655Z,47.88
2023-08-13T07:51:39.270Z,48.77
2023-08-13T07:54:07.898Z,48.72
2023-08-13T07:56:37.882Z,46.68
2023-08-13T07:59:06.846Z,46.62
2023-08-13T08:01:35.665Z,46.45
2023-08-13T08:04:07.324Z,47.86
2023-08-13T08:06:40.864Z,45.27
2023-08-13T08:09:14.220Z,44.27
2023-08-13T08:11:43.150Z,45.74
2023-08-13T08:14:12.123Z,45.27
2023-08-13T08:16:41.182Z,44.86
2023-08-13T08:19:15.730Z,43.88
2023-08-13T08:21:44.491Z,40.95
2023-08-13T08:24:13.270Z,40.92
2023-08-13T08:26:44.861Z,40.91
2023-08-13T08:29:13.294Z,40.37
2023-08-13T08:31:45.791Z,40.21
2023-08-13T08:34:14.391Z,39.52
2023-08-13T08:36:45.806Z,40.24
2023-08-13T08:39:16.902Z,40.48
2023-08-13T08:41:48.203Z,40.36
2023-08-13T08:44:24.004Z,39.50
2023-08-13T08:46:55.185Z,40.14
2023-08-13T08:49:24.082Z,39.79
2023-08-13T08:51:53.220Z,40.81
2023-08-13T08:54:22.393Z,39.80
2023-08-13T08:56:50.904Z,38.24
2023-08-13T08:59:20.541Z,37.81
2023-08-13T09:01:49.397Z,38.46
2023-08-13T09:04:18.471Z,38.93
2023-08-13T09:25:37.054Z,36.70
2023-08-13T09:28:05.845Z,36.74
2023-08-13T09:30:34.702Z,37.38
2023-08-13T09:33:04.532Z,37.08
2023-08-13T09:35:33.334Z,37.06
2023-08-13T09:38:02.308Z,36.98
2023-08-13T09:40:31.450Z,36.66
2023-08-13T09:43:00.880Z,36.76
2023-08-13T09:45:30.653Z,37.19
2023-08-13T09:48:06.674Z,37.27
2023-08-13T09:50:42.692Z,36.96
2023-08-13T09:53:16.185Z,35.39
2023-08-13T09:55:58.562Z,35.68
2023-08-13T09:58:27.877Z,34.65
2023-08-13T10:00:57.048Z,34.75
2023-08-13T10:03:26.694Z,34.77
2023-08-13T10:05:56.895Z,35.34
2023-08-13T10:08:26.234Z,35.64
2023-08-13T10:10:55.106Z,35.18
2023-08-13T10:13:23.994Z,35.55
2023-08-13T10:15:55.977Z,35.00
2023-08-13T10:18:30.510Z,34.58
2023-08-13T10:20:58.899Z,34.96
2023-08-13T10:23:31.836Z,35.10
2023-08-13T10:26:00.505Z,35.18
2023-08-13T10:28:34.073Z,35.72
2023-08-13T10:31:25.884Z,35.14
2023-08-13T10:34:10.943Z,34.34
2023-08-13T10:36:46.031Z,35.22
2023-08-13T10:40:09.860Z,35.53
2023-08-13T10:42:39.322Z,34.26
2023-08-13T10:45:10.185Z,34.88
2023-08-13T10:47:55.467Z,34.44
2023-08-13T10:50:36.026Z,34.37
2023-08-13T10:53:21.082Z,32.55
2023-08-13T10:55:53.654Z,32.89
2023-08-13T10:58:27.100Z,33.34
2023-08-13T11:01:19.695Z,33.65
2023-08-13T11:03:56.402Z,33.35
2023-08-13T11:06:26.618Z,33.15
2023-08-13T11:08:55.983Z,33.85
2023-08-13T11:11:24.694Z,33.77
2023-08-13T11:13:54.632Z,33.62
2023-08-13T11:16:23.352Z,32.99
2023-08-13T11:18:52.168Z,33.59
2023-08-13T11:21:20.868Z,33.66
2023-08-13T11:23:49.633Z,33.03
2023-08-13T11:26:18.667Z,33.43
2023-08-13T11:28:47.426Z,33.07
2023-08-13T11:31:15.898Z,32.07
2023-08-13T11:33:44.623Z,31.75
2023-08-13T11:36:13.658Z,29.95
2023-08-13T11:38:42.671Z,30.92
2023-08-13T11:41:14.981Z,29.82
2023-08-13T11:43:43.911Z,29.81
2023-08-13T11:46:12.559Z,30.56
2023-08-13T11:48:41.759Z,30.92
2023-08-13T11:51:23.884Z,30.84
2023-08-13T11:53:53.316Z,29.44
2023-08-13T11:56:22.840Z,28.98
2023-08-13T11:58:52.142Z,28.94
2023-08-13T12:01:20.761Z,29.77
2023-08-13T12:03:51.722Z,28.75
2023-08-13T12:06:23.029Z,27.84
2023-08-13T12:08:53.663Z,28.23
2023-08-13T12:11:22.640Z,28.44
2023-08-13T12:13:52.134Z,28.54
2023-08-13T12:16:20.563Z,29.46
2023-08-13T12:18:50.106Z,27.87
2023-08-13T12:21:18.971Z,27.00
2023-08-13T12:23:48.972Z,26.75
2023-08-13T12:26:17.668Z,26.95
2023-08-13T12:28:51.936Z,27.27
2023-08-13T12:31:20.852Z,28.14
2023-08-13T12:33:49.509Z,27.52
2023-08-13T12:36:18.183Z,27.47
2023-08-13T12:38:46.665Z,26.45
2023-08-13T12:41:17.196Z,26.17
2023-08-13T12:43:50.083Z,26.36
2023-08-13T12:46:18.393Z,27.52
2023-08-13T12:48:47.158Z,27.69
2023-08-13T12:51:16.139Z,27.09
2023-08-13T12:53:44.833Z,26.56
2023-08-13T12:56:15.151Z,26.17
2023-08-13T12:58:46.296Z,25.99
2023-08-13T13:01:15.129Z,26.35
2023-08-13T13:03:43.573Z,27.19
2023-08-13T13:06:11.939Z,26.83
2023-08-13T13:08:40.423Z,26.63
2023-08-13T13:11:08.842Z,26.59
2023-08-13T13:13:37.730Z,26.05
2023-08-13T13:16:06.653Z,25.93
2023-08-13T13:18:35.388Z,26.18
2023-08-13T13:21:03.738Z,26.13
2023-08-13T13:23:32.364Z,25.69
2023-08-13T13:26:00.820Z,25.64
2023-08-13T13:28:30.171Z,25.24
2023-08-13T13:30:58.895Z,25.29
2023-08-13T13:33:32.025Z,24.98
2023-08-13T13:36:02.221Z,25.03
2023-08-13T13:38:30.774Z,25.07
2023-08-13T13:40:59.268Z,24.72
2023-08-13T13:43:28.713Z,25.29
2023-08-13T13:45:57.418Z,24.75
2023-08-13T13:48:26.056Z,24.31
2023-08-13T13:50:54.732Z,24.46
2023-08-13T13:53:23.653Z,24.91
2023-08-13T13:55:52.492Z,25.44
2023-08-13T13:58:21.302Z,23.94
2023-08-13T14:00:50.663Z,23.62
2023-08-13T14:03:20.319Z,24.23
2023-08-13T14:05:55.344Z,23.47
2023-08-13T14:08:24.043Z,23.21
2023-08-13T14:10:52.646Z,23.86
2023-08-13T14:13:21.002Z,24.30
2023-08-13T14:15:49.717Z,24.74
2023-08-13T14:18:18.466Z,24.90
2023-08-13T14:20:51.720Z,24.38
2023-08-13T14:23:20.589Z,24.30
2023-08-13T14:25:52.313Z,24.59
2023-08-13T14:28:21.057Z,24.85
2023-08-13T14:30:50.920Z,24.79
2023-08-13T14:33:19.496Z,24.84
2023-08-13T14:35:48.488Z,25.57
2023-08-13T14:38:16.962Z,25.53
2023-08-13T14:40:46.164Z,26.09
2023-08-13T14:43:14.743Z,26.14
2023-08-13T14:45:43.270Z,26.42
2023-08-13T14:48:11.808Z,26.48
2023-08-13T14:50:41.106Z,25.67
2023-08-13T14:53:09.716Z,26.15
2023-08-13T14:55:38.173Z,26.14
2023-08-13T14:58:06.761Z,26.32
2023-08-13T15:00:35.265Z,26.43
2023-08-13T15:03:04.307Z,26.65
2023-08-13T15:05:35.905Z,27.08
2023-08-13T15:08:05.214Z,26.68
2023-08-13T15:10:33.694Z,26.96
2023-08-13T15:13:02.559Z,26.69
2023-08-13T15:15:31.395Z,26.92
2023-08-13T15:18:00.736Z,26.89
2023-08-13T15:20:30.260Z,27.24
2023-08-13T15:22:59.653Z,27.56
2023-08-13T15:25:29.519Z,27.46
2023-08-13T15:28:02.295Z,27.52
2023-08-13T15:30:32.318Z,27.70
2023-08-13T15:33:02.911Z,28.16
2023-08-13T15:35:31.395Z,27.95
2023-08-13T15:38:01.605Z,28.16
2023-08-13T15:40:30.085Z,28.20
2023-08-13T15:43:00.917Z,27.86
2023-08-13T15:45:31.988Z,28.07
2023-08-13T15:48:01.088Z,28.39
2023-08-13T15:50:29.947Z,28.82
2023-08-13T15:52:58.610Z,28.78
2023-08-13T15:55:27.326Z,29.20
2023-08-13T15:57:56.321Z,29.03
2023-08-13T16:00:25.313Z,28.71
2023-08-13T16:02:54.089Z,28.39
2023-08-13T16:05:22.987Z,28.39
2023-08-13T16:07:51.488Z,27.71
2023-08-13T16:10:20.926Z,27.94
2023-08-13T16:12:50.996Z,27.44
2023-08-13T16:15:21.556Z,27.47
2023-08-13T16:17:51.558Z,27.52
2023-08-13T16:20:20.284Z,28.26
2023-08-13T16:22:51.757Z,28.17
2023-08-13T16:25:24.706Z,27.98
2023-08-13T16:27:56.209Z,28.33
2023-08-13T16:30:25.206Z,28.87
2023-08-13T16:32:54.833Z,29.10
2023-08-13T16:35:24.127Z,29.07
2023-08-13T16:37:53.319Z,29.14
2023-08-13T16:40:23.765Z,29.26
2023-08-13T16:43:05.263Z,29.47
2023-08-13T16:49:21.752Z,30.03
2023-08-13T16:51:51.699Z,30.28
2023-08-13T16:54:21.882Z,30.45
2023-08-13T16:56:50.368Z,30.55
2023-08-13T16:59:19.086Z,30.79
2023-08-13T17:01:47.716Z,31.06
2023-08-13T17:04:16.126Z,31.25
2023-08-13T17:06:44.809Z,31.48
2023-08-13T17:09:14.017Z,31.85
2023-08-13T17:11:42.483Z,31.95
2023-08-13T17:14:11.267Z,32.20
2023-08-13T17:16:40.398Z,32.44
2023-08-13T17:19:09.060Z,32.68
2023-08-13T17:21:37.910Z,32.85
2023-08-13T17:24:07.283Z,32.91
2023-08-13T17:26:35.935Z,33.16
2023-08-13T17:29:04.932Z,33.32
2023-08-13T17:31:33.657Z,33.43
2023-08-13T17:34:02.346Z,33.69
2023-08-13T17:36:30.992Z,33.94
2023-08-13T17:39:02.036Z,34.00
2023-08-13T17:41:32.310Z,34.64
2023-08-13T17:44:00.829Z,35.19
2023-08-13T17:46:29.625Z,35.49
2023-08-13T17:48:58.441Z,35.96
2023-08-13T17:51:27.002Z,36.86
2023-08-13T17:53:55.402Z,36.84
2023-08-13T17:56:24.399Z,37.32
2023-08-13T17:58:57.100Z,37.79
2023-08-13T18:01:26.306Z,37.75
2023-08-13T18:03:55.143Z,37.81
2023-08-13T18:06:24.256Z,37.47
2023-08-13T18:09:04.166Z,37.93
2023-08-13T18:11:34.602Z,37.69
2023-08-13T18:14:03.153Z,37.86
2023-08-13T18:16:32.522Z,38.65
2023-08-13T18:19:01.261Z,39.55
2023-08-13T18:21:30.215Z,40.12
2023-08-13T18:23:59.833Z,39.38
2023-08-13T18:26:31.440Z,40.80
2023-08-13T18:29:01.246Z,41.22
2023-08-13T18:31:30.239Z,41.79
2023-08-13T18:33:59.647Z,41.41
2023-08-13T18:36:28.263Z,42.21
2023-08-13T18:38:56.964Z,41.78
2023-08-13T18:41:28.947Z,40.79
2023-08-13T18:43:57.476Z,41.39
2023-08-13T18:46:28.891Z,42.40
2023-08-13T18:49:01.272Z,42.75
2023-08-13T18:51:32.879Z,42.87
2023-08-13T18:54:03.424Z,41.74
2023-08-13T18:56:53.793Z,43.15
2023-08-13T18:59:23.041Z,44.19
2023-08-13T19:01:56.113Z,44.27
2023-08-13T19:04:29.228Z,43.52
2023-08-13T19:06:59.451Z,43.76
2023-08-13T19:09:39.433Z,44.61
2023-08-13T19:12:09.844Z,45.02
2023-08-13T19:14:41.304Z,44.94
2023-08-13T19:17:13.476Z,45.81
2023-08-13T19:19:43.356Z,44.92
2023-08-13T19:22:26.355Z,45.99
2023-08-13T19:25:10.908Z,44.96
2023-08-13T19:27:48.424Z,45.80
2023-08-13T19:30:18.755Z,46.16
2023-08-13T19:33:25.963Z,45.55
2023-08-13T19:35:57.670Z,47.23
2023-08-13T19:38:28.523Z,47.95
2023-08-13T19:41:20.219Z,49.34
2023-08-13T19:43:51.376Z,49.34
2023-08-13T19:46:20.506Z,48.98
2023-08-13T19:49:08.253Z,47.96
2023-08-13T19:51:37.045Z,48.10
2023-08-13T19:54:06.171Z,48.39
2023-08-13T19:56:43.482Z,48.34
2023-08-13T19:59:17.414Z,48.20
2023-08-13T20:01:47.889Z,47.71
2023-08-13T20:04:24.774Z,48.65
2023-08-13T20:06:53.915Z,48.43
2023-08-13T20:09:23.318Z,49.76
2023-08-13T20:12:01.793Z,49.86
2023-08-13T20:14:40.265Z,49.59
2023-08-13T20:17:09.715Z,48.88
2023-08-13T20:19:52.089Z,49.57
2023-08-13T20:22:23.247Z,50.74
2023-08-13T20:24:55.832Z,50.23
2023-08-13T20:27:24.866Z,51.42
2023-08-13T20:30:16.394Z,51.19
2023-08-13T20:32:45.121Z,51.63
2023-08-13T20:35:14.075Z,51.20
2023-08-13T20:37:42.809Z,52.29
2023-08-13T20:40:12.775Z,51.49
2023-08-13T20:42:42.666Z,52.89
2023-08-13T20:45:11.894Z,52.04
2023-08-13T20:47:40.760Z,52.53
2023-08-13T20:50:17.924Z,52.57
2023-08-13T20:52:47.660Z,52.42
2023-08-13T20:55:16.420Z,51.40
2023-08-13T20:57:45.204Z,52.10
2023-08-13T21:00:14.661Z,53.01
2023-08-13T21:02:43.598Z,52.93
2023-08-13T21:25:39.088Z,54.91
2023-08-13T21:28:07.947Z,55.69
2023-08-13T21:30:36.288Z,55.91
2023-08-13T21:33:05.389Z,56.54
2023-08-13T21:35:34.017Z,56.72
2023-08-13T21:38:03.261Z,56.80
2023-08-13T21:40:32.218Z,56.83
2023-08-13T21:43:00.986Z,57.29
2023-08-13T21:45:30.690Z,56.44
2023-08-13T21:47:59.404Z,56.43
2023-08-13T21:50:28.061Z,57.69
2023-08-13T21:52:56.659Z,58.02
2023-08-13T21:55:25.242Z,58.09
2023-08-13T21:57:53.817Z,57.16
2023-08-13T22:00:22.400Z,58.01
2023-08-13T22:02:51.028Z,56.37
2023-08-13T22:05:19.899Z,56.94
2023-08-13T22:07:48.974Z,56.99
2023-08-13T22:10:20.550Z,57.18
2023-08-13T22:12:49.135Z,57.89
2023-08-13T22:15:17.525Z,57.35
2023-08-13T22:17:46.152Z,56.99
2023-08-13T22:20:14.856Z,58.65
2023-08-13T22:22:43.375Z,58.57
2023-08-13T22:25:13.566Z,57.50
2023-08-13T22:27:42.039Z,58.60
2023-08-13T22:30:11.396Z,58.21
2023-08-13T22:32:41.559Z,59.52
2023-08-13T22:35:10.257Z,59.30
2023-08-13T22:37:38.941Z,59.62
2023-08-13T22:40:08.456Z,59.91
2023-08-13T22:42:36.935Z,59.32
2023-08-13T22:45:06.634Z,59.75
2023-08-13T22:47:35.243Z,59.54
2023-08-13T22:50:06.904Z,59.01
2023-08-13T22:52:35.561Z,57.99
2023-08-13T22:55:04.762Z,57.46
2023-08-13T22:57:33.142Z,57.88
2023-08-13T23:00:01.920Z,58.77
2023-08-13T23:02:30.441Z,59.23
2023-08-13T23:05:00.157Z,60.86
2023-08-13T23:07:28.698Z,60.24
2023-08-13T23:09:57.111Z,61.03
2023-08-13T23:12:25.658Z,60.24
2023-08-13T23:14:54.188Z,59.60
2023-08-13T23:17:22.949Z,60.92
2023-08-13T23:19:51.734Z,61.05
2023-08-13T23:22:20.772Z,61.70
2023-08-13T23:24:49.394Z,61.77
2023-08-13T23:27:18.310Z,62.34
2023-08-13T23:29:47.220Z,61.25
2023-08-13T23:32:16.523Z,61.62
2023-08-13T23:34:45.611Z,61.16
2023-08-13T23:37:14.904Z,61.24
2023-08-13T23:39:44.612Z,63.31
2023-08-13T23:42:13.422Z,61.71
2023-08-13T23:44:41.962Z,61.14
2023-08-13T23:47:10.947Z,61.91
2023-08-13T23:49:39.547Z,60.68
2023-08-13T23:52:08.639Z,60.61
2023-08-13T23:54:37.210Z,62.22
2023-08-13T23:57:06.298Z,63.33
2023-08-13T23:59:35.107Z,63.43
